Time;durP1;ratioP1;P1;durP2;ratioP2;P2;SDS_P1;SDS_P2;PMS_P1;PMS_P2;Temp;Humidity;BMP_temperature;BMP_pressure;BME280_temperature;BME280_humidity;BME280_pressure;Samples;Min_cycle;Max_cycle;Signal;HPM_P1;HPM_P2
2021/03/21 00:01:54;;;;;;;5.57;4.57;;;4.10;99.90;;;;;;5102928;28;20115;-77
2021/03/21 00:04:20;;;;;;;6.95;4.50;;;4.00;99.90;;;;;;5094500;28;20021;-77
2021/03/21 00:06:46;;;;;;;5.07;4.15;;;4.00;99.90;;;;;;5095315;28;20043;-77
2021/03/21 00:09:13;;;;;;;5.57;4.78;;;4.00;99.90;;;;;;5095880;28;20035;-77
2021/03/21 00:11:39;;;;;;;6.75;4.70;;;3.90;99.90;;;;;;5095033;28;20447;-77
2021/03/21 00:14:06;;;;;;;5.35;4.60;;;3.70;99.90;;;;;;5095208;28;20030;-77
2021/03/21 00:16:33;;;;;;;6.40;4.88;;;3.70;99.90;;;;;;5095687;28;20047;-77
2021/03/21 00:18:59;;;;;;;5.70;4.57;;;3.70;99.90;;;;;;5095444;28;20051;-77
2021/03/21 00:21:25;;;;;;;5.97;4.45;;;3.80;99.90;;;;;;5094844;28;20484;-77
2021/03/21 00:23:51;;;;;;;6.45;4.88;;;3.70;99.90;;;;;;5095475;28;20501;-77
2021/03/21 00:26:17;;;;;;;8.60;5.95;;;3.60;99.90;;;;;;5095451;28;20033;-77
2021/03/21 00:28:43;;;;;;;10.88;6.93;;;3.50;99.90;;;;;;5095391;28;20217;-77
2021/03/21 00:31:12;;;;;;;10.05;6.45;;;3.40;99.90;;;;;;5095640;28;20036;-77
2021/03/21 00:33:39;;;;;;;9.27;5.93;;;3.50;99.90;;;;;;5095351;28;20028;-77
2021/03/21 00:36:07;;;;;;;10.88;6.47;;;3.40;99.90;;;;;;5094596;28;20023;-77
2021/03/21 00:38:36;;;;;;;14.15;8.00;;;3.40;99.90;;;;;;5094909;28;20464;-77
2021/03/21 00:41:04;;;;;;;9.45;5.43;;;3.50;99.90;;;;;;5093862;28;20475;-77
2021/03/21 00:43:30;;;;;;;7.20;5.18;;;3.50;99.90;;;;;;5095037;28;20067;-77
2021/03/21 00:45:56;;;;;;;7.63;5.05;;;3.50;99.90;;;;;;5095005;28;20059;-77
2021/03/21 00:48:26;;;;;;;7.97;5.03;;;3.50;99.90;;;;;;5095015;28;20016;-77
2021/03/21 00:50:52;;;;;;;7.03;4.88;;;3.50;99.90;;;;;;5107533;28;20122;-77
2021/03/21 00:53:18;;;;;;;7.28;4.88;;;3.40;99.90;;;;;;5115129;28;20419;-77
2021/03/21 00:55:45;;;;;;;6.40;4.68;;;3.30;99.90;;;;;;5115264;28;20063;-77
2021/03/21 00:58:10;;;;;;;7.57;5.45;;;3.30;99.90;;;;;;5115023;28;20015;-77
2021/03/21 01:00:40;;;;;;;6.60;5.25;;;3.60;99.90;;;;;;5114879;28;20031;-77
2021/03/21 01:03:06;;;;;;;7.28;5.03;;;2.90;99.90;;;;;;5115089;28;20027;-77
2021/03/21 01:05:35;;;;;;;8.95;6.03;;;2.90;99.90;;;;;;5114029;28;20088;-77
2021/03/21 01:08:04;;;;;;;9.65;5.95;;;2.80;99.90;;;;;;5114856;28;20024;-77
2021/03/21 01:10:35;;;;;;;8.57;5.75;;;2.90;99.90;;;;;;5114935;28;20027;-77
2021/03/21 01:13:01;;;;;;;6.30;5.20;;;2.80;99.90;;;;;;5115233;28;20028;-77
2021/03/21 01:15:29;;;;;;;7.38;5.22;;;2.80;99.90;;;;;;5114754;28;20023;-77
2021/03/21 01:17:55;;;;;;;7.22;5.50;;;2.80;99.90;;;;;;5114818;28;20485;-77
2021/03/21 01:20:24;;;;;;;8.10;5.07;;;2.90;99.90;;;;;;5100661;28;20059;-77
2021/03/21 01:22:50;;;;;;;7.30;5.25;;;2.80;99.90;;;;;;5094390;28;20070;-77
2021/03/21 01:25:20;;;;;;;6.97;5.45;;;2.80;99.90;;;;;;5094415;28;20062;-77
2021/03/21 01:27:46;;;;;;;7.20;5.25;;;2.80;99.90;;;;;;5094087;28;20480;-77
2021/03/21 01:30:13;;;;;;;8.43;6.25;;;2.80;99.90;;;;;;5094087;28;20043;-77
2021/03/21 01:32:38;;;;;;;10.23;7.40;;;2.80;99.90;;;;;;5094051;28;20019;-77
2021/03/21 01:35:05;;;;;;;10.10;7.25;;;2.90;99.90;;;;;;5102075;28;20016;-77
2021/03/21 01:37:31;;;;;;;9.32;6.90;;;2.80;99.90;;;;;;5093892;28;20036;-77
2021/03/21 01:39:57;;;;;;;11.30;7.40;;;2.80;99.90;;;;;;5094074;28;20035;-77
2021/03/21 01:42:23;;;;;;;10.52;6.97;;;2.70;99.90;;;;;;5094026;28;20028;-77
2021/03/21 01:44:54;;;;;;;10.50;7.00;;;2.70;99.90;;;;;;5093983;28;20024;-77
2021/03/21 01:47:32;;;;;;;9.00;5.97;;;2.70;99.90;;;;;;5093913;28;20094;-77
2021/03/21 01:49:59;;;;;;;8.15;5.80;;;3.00;99.90;;;;;;5108582;28;20106;-77
2021/03/21 01:52:39;;;;;;;6.18;5.15;;;2.40;99.90;;;;;;5114239;28;20073;-77
2021/03/21 01:55:11;;;;;;;5.57;4.72;;;2.40;99.90;;;;;;5114303;28;20413;-77
2021/03/21 01:57:37;;;;;;;6.43;4.63;;;2.50;99.90;;;;;;5114035;28;20391;-77
2021/03/21 02:00:06;;;;;;;5.70;4.75;;;2.60;99.90;;;;;;5114060;28;20077;-77
2021/03/21 02:02:32;;;;;;;8.57;5.90;;;2.50;99.90;;;;;;5112537;28;20475;-77
2021/03/21 02:04:57;;;;;;;7.15;5.53;;;2.50;99.90;;;;;;5093121;28;20032;-77
2021/03/21 02:07:40;;;;;;;7.80;5.72;;;2.50;99.90;;;;;;5093467;28;20464;-77
2021/03/21 02:10:41;;;;;;;8.07;5.60;;;2.50;99.90;;;;;;5093399;28;20449;-77
2021/03/21 02:13:27;;;;;;;9.30;5.97;;;2.50;99.90;;;;;;5092697;28;20032;-77
2021/03/21 02:16:06;;;;;;;7.43;5.85;;;2.50;99.90;;;;;;5079636;28;20020;-77
2021/03/21 02:18:58;;;;;;;8.55;5.60;;;2.50;99.90;;;;;;5101471;28;20348;-77
2021/03/21 02:21:45;;;;;;;8.13;5.78;;;2.60;99.90;;;;;;5095975;28;20404;-77
2021/03/21 02:24:32;;;;;;;7.18;5.47;;;2.60;99.90;;;;;;5101128;28;20475;-77
2021/03/21 02:27:25;;;;;;;6.80;5.80;;;2.50;99.90;;;;;;5112577;28;20471;-77
2021/03/21 02:30:12;;;;;;;8.70;5.90;;;2.60;99.90;;;;;;5111274;28;20502;-77
2021/03/21 02:32:46;;;;;;;6.95;5.57;;;2.60;99.90;;;;;;5111182;28;20673;-77
2021/03/21 02:35:22;;;;;;;7.65;5.72;;;2.50;99.90;;;;;;5112489;28;20028;-77
2021/03/21 02:38:12;;;;;;;7.63;5.40;;;2.50;99.90;;;;;;5112205;28;20024;-76
2021/03/21 02:40:47;;;;;;;7.72;5.50;;;2.50;99.90;;;;;;5113147;28;20460;-77
2021/03/21 02:43:26;;;;;;;6.68;5.40;;;2.60;99.90;;;;;;5113444;28;20069;-77
2021/03/21 02:45:55;;;;;;;7.35;5.57;;;2.60;99.90;;;;;;5113290;28;20032;-77
2021/03/21 02:48:37;;;;;;;7.75;5.50;;;2.50;99.90;;;;;;5112735;28;20035;-76
2021/03/21 02:51:17;;;;;;;8.10;5.68;;;2.50;99.90;;;;;;5113505;28;20085;-77
2021/03/21 02:53:47;;;;;;;6.50;5.47;;;2.60;99.90;;;;;;5113378;28;20148;-77
2021/03/21 02:56:20;;;;;;;6.30;5.43;;;2.50;99.90;;;;;;5112056;28;20059;-77
2021/03/21 02:59:14;;;;;;;7.68;5.53;;;2.40;99.90;;;;;;5113200;28;20073;-77
2021/03/21 03:01:52;;;;;;;7.07;5.60;;;2.40;99.90;;;;;;5110544;28;20035;-77
2021/03/21 03:04:23;;;;;;;7.88;5.60;;;2.40;99.90;;;;;;5095340;28;20047;-77
2021/03/21 03:07:12;;;;;;;7.90;6.00;;;2.40;99.90;;;;;;5092995;28;20039;-77
2021/03/21 03:09:43;;;;;;;7.68;5.32;;;2.40;99.90;;;;;;5092728;28;20514;-77
2021/03/21 03:12:15;;;;;;;7.30;5.65;;;2.30;99.90;;;;;;5092786;28;20070;-77
2021/03/21 03:14:43;;;;;;;8.13;6.18;;;2.30;99.90;;;;;;5092729;28;20027;-77
2021/03/21 03:17:30;;;;;;;7.45;5.93;;;2.30;99.90;;;;;;5092309;28;20039;-77
2021/03/21 03:20:06;;;;;;;8.35;6.35;;;2.20;99.90;;;;;;5092431;28;20050;-77
2021/03/21 03:22:49;;;;;;;7.82;6.15;;;2.20;99.90;;;;;;5092832;28;20082;-77
2021/03/21 03:25:25;;;;;;;7.13;6.05;;;2.20;99.90;;;;;;5092727;28;20028;-77
2021/03/21 03:28:05;;;;;;;8.30;6.20;;;2.10;99.90;;;;;;5092625;28;20020;-77
2021/03/21 03:30:45;;;;;;;9.02;6.32;;;2.10;99.90;;;;;;5092608;28;20039;-77
2021/03/21 03:33:11;;;;;;;7.05;5.80;;;2.00;99.90;;;;;;5092516;28;20078;-77
2021/03/21 03:35:37;;;;;;;8.43;6.22;;;2.00;99.90;;;;;;5101412;28;20035;-77
2021/03/21 03:38:06;;;;;;;9.18;6.43;;;2.10;99.90;;;;;;5092966;28;20021;-77
2021/03/21 03:40:35;;;;;;;8.60;6.32;;;2.10;99.90;;;;;;5092981;28;20461;-77
2021/03/21 03:43:22;;;;;;;8.40;6.43;;;2.20;99.90;;;;;;5095914;28;20016;-77
2021/03/21 03:46:08;;;;;;;8.32;6.28;;;2.20;99.90;;;;;;5095643;28;20027;-77
2021/03/21 03:48:44;;;;;;;8.43;6.28;;;2.10;99.90;;;;;;5096289;28;20117;-77
2021/03/21 03:51:21;;;;;;;7.55;5.93;;;2.10;99.90;;;;;;5096035;28;20173;-77
2021/03/21 03:54:01;;;;;;;7.95;6.32;;;2.10;99.90;;;;;;5096087;28;20109;-77
2021/03/21 03:56:48;;;;;;;8.25;6.50;;;2.10;99.90;;;;;;5096290;28;20020;-77
2021/03/21 03:59:38;;;;;;;7.78;5.70;;;2.10;99.90;;;;;;5095724;28;20024;-77
2021/03/21 04:02:13;;;;;;;9.68;7.00;;;2.00;99.90;;;;;;5095023;28;20031;-77
2021/03/21 04:04:55;;;;;;;8.77;6.78;;;2.10;99.90;;;;;;5094490;28;20057;-77
2021/03/21 04:07:29;;;;;;;9.75;6.47;;;2.00;99.90;;;;;;5095891;28;20108;-77
2021/03/21 04:10:04;;;;;;;8.50;6.78;;;2.00;99.90;;;;;;5095504;28;20085;-77
2021/03/21 04:12:36;;;;;;;10.70;7.65;;;1.90;99.90;;;;;;5095953;28;20024;-77
2021/03/21 04:15:06;;;;;;;11.27;8.20;;;2.00;99.90;;;;;;5095145;28;20411;-77
2021/03/21 04:17:41;;;;;;;11.15;7.97;;;2.00;99.90;;;;;;5109886;28;20027;-77
2021/03/21 04:20:21;;;;;;;11.40;7.53;;;1.90;99.90;;;;;;5110155;28;20052;-77
2021/03/21 04:23:25;;;;;;;12.25;7.38;;;1.90;99.90;;;;;;5095533;28;20031;-77
2021/03/21 04:25:56;;;;;;;10.25;7.38;;;1.80;99.90;;;;;;5056215;28;20098;-77
2021/03/21 04:28:32;;;;;;;11.23;7.68;;;1.80;99.90;;;;;;5072683;28;20086;-77
2021/03/21 04:31:02;;;;;;;8.73;7.03;;;1.90;99.90;;;;;;5073197;28;20388;-77
2021/03/21 04:33:33;;;;;;;10.27;7.25;;;1.90;99.90;;;;;;5073122;28;20029;-77
2021/03/21 04:36:03;;;;;;;9.80;7.40;;;1.90;99.90;;;;;;5072743;28;20083;-77
2021/03/21 04:38:41;;;;;;;9.55;6.90;;;1.90;99.90;;;;;;5072952;28;20060;-77
2021/03/21 04:41:10;;;;;;;8.65;7.13;;;2.40;99.90;;;;;;5072413;28;20111;-77
2021/03/21 04:43:57;;;;;;;8.90;6.85;;;1.80;99.90;;;;;;5072435;28;20039;-77
2021/03/21 04:46:35;;;;;;;10.02;6.97;;;1.90;99.90;;;;;;5083337;28;20034;-77
2021/03/21 04:49:01;;;;;;;10.60;7.03;;;1.80;99.90;;;;;;5092136;28;20028;-77
2021/03/21 04:51:32;;;;;;;9.75;6.45;;;1.80;99.90;;;;;;5092114;28;20028;-77
2021/03/21 04:54:24;;;;;;;9.60;7.53;;;1.70;99.90;;;;;;5092565;28;20487;-77
2021/03/21 04:57:01;;;;;;;8.32;6.85;;;1.70;99.90;;;;;;5081904;28;20123;-77
2021/03/21 04:59:32;;;;;;;10.52;7.30;;;1.60;99.90;;;;;;5092548;28;20036;-77
2021/03/21 05:02:14;;;;;;;9.95;7.32;;;1.60;99.90;;;;;;5093780;28;20367;-77
2021/03/21 05:04:51;;;;;;;7.63;6.43;;;1.60;99.90;;;;;;5115065;28;20030;-77
2021/03/21 05:07:25;;;;;;;10.63;7.57;;;1.60;99.90;;;;;;5115065;28;20039;-76
2021/03/21 05:10:06;;;;;;;9.18;6.95;;;1.60;99.90;;;;;;5115171;28;20031;-77
2021/03/21 05:12:37;;;;;;;9.88;7.40;;;1.50;99.90;;;;;;5114756;28;20375;-77
2021/03/21 05:15:30;;;;;;;9.70;7.43;;;1.50;99.90;;;;;;5110579;28;20040;-77
2021/03/21 05:18:18;;;;;;;8.50;6.63;;;1.60;99.90;;;;;;5094506;28;20028;-77
2021/03/21 05:20:49;;;;;;;9.57;7.03;;;1.40;99.90;;;;;;5093993;28;20044;-77
2021/03/21 05:23:36;;;;;;;9.27;6.97;;;1.40;99.90;;;;;;5094139;28;20070;-77
2021/03/21 05:26:10;;;;;;;13.45;6.75;;;1.40;99.90;;;;;;5093834;28;20032;-77
2021/03/21 05:28:47;;;;;;;11.25;7.50;;;1.40;99.90;;;;;;5094043;28;20020;-77
2021/03/21 05:31:14;;;;;;;9.95;7.53;;;1.40;99.90;;;;;;5112915;28;20031;-77
2021/03/21 05:33:41;;;;;;;11.20;7.53;;;1.50;99.90;;;;;;5114486;28;20098;-77
2021/03/21 05:36:24;;;;;;;11.07;8.10;;;1.40;99.90;;;;;;5105579;28;20082;-77
2021/03/21 05:38:58;;;;;;;10.55;7.15;;;1.40;99.90;;;;;;5094008;28;20594;-77
2021/03/21 05:41:47;;;;;;;10.13;7.28;;;1.50;99.90;;;;;;5093818;28;20024;-77
2021/03/21 05:44:36;;;;;;;9.57;7.38;;;1.40;99.90;;;;;;5093755;28;20020;-77
2021/03/21 05:47:19;;;;;;;9.70;6.78;;;1.40;99.90;;;;;;5071159;28;20040;-77
2021/03/21 05:50:31;;;;;;;10.80;7.32;;;1.30;99.90;;;;;;5087299;28;20099;-77
2021/03/21 05:53:19;;;;;;;8.68;6.63;;;1.40;99.90;;;;;;5076307;28;20067;-77
2021/03/21 05:56:22;;;;;;;10.70;7.05;;;1.50;99.90;;;;;;5071174;28;20107;-77
2021/03/21 05:59:16;;;;;;;10.02;7.25;;;1.50;99.90;;;;;;5071416;28;20041;-77
2021/03/21 06:01:56;;;;;;;9.40;6.93;;;1.50;99.90;;;;;;5072064;28;20075;-77
2021/03/21 06:04:41;;;;;;;12.27;7.55;;;1.60;99.90;;;;;;5082454;28;20077;-77
2021/03/21 06:07:24;;;;;;;8.80;6.53;;;1.60;99.90;;;;;;5073048;28;20406;-77
2021/03/21 06:10:08;;;;;;;8.95;7.20;;;1.60;99.90;;;;;;5072461;28;20029;-77
2021/03/21 06:12:56;;;;;;;10.23;7.03;;;1.50;99.90;;;;;;5091305;28;20054;-77
2021/03/21 06:16:09;;;;;;;10.40;7.07;;;1.60;99.90;;;;;;5071121;28;20138;-81
2021/03/21 06:18:55;;;;;;;9.98;7.25;;;1.50;99.90;;;;;;4980555;28;20038;-77
2021/03/21 06:21:21;;;;;;;9.07;6.97;;;1.50;99.90;;;;;;4971705;28;20057;-77
2021/03/21 06:24:05;;;;;;;8.02;6.60;;;1.50;99.90;;;;;;5005216;28;20045;-77
2021/03/21 06:26:46;;;;;;;9.45;6.32;;;1.60;99.90;;;;;;5030717;28;20024;-77
2021/03/21 06:29:26;;;;;;;11.90;7.45;;;1.70;99.90;;;;;;5029567;28;20090;-77
2021/03/21 06:32:25;;;;;;;12.23;7.55;;;1.80;99.90;;;;;;5010437;28;20038;-77
2021/03/21 06:35:21;;;;;;;10.02;7.50;;;1.90;99.90;;;;;;5010217;28;20108;-77
2021/03/21 06:38:28;;;;;;;8.35;6.50;;;1.90;99.90;;;;;;5005130;28;20045;-77
2021/03/21 06:41:27;;;;;;;8.93;7.18;;;2.00;99.90;;;;;;5018573;28;20046;-77
2021/03/21 06:44:27;;;;;;;10.35;6.93;;;1.90;99.90;;;;;;5011369;28;20053;-77
2021/03/21 06:47:07;;;;;;;12.18;7.13;;;1.90;99.90;;;;;;4991372;28;20069;-77
2021/03/21 06:50:07;;;;;;;7.07;6.30;;;2.10;99.90;;;;;;5003424;28;20038;-77
2021/03/21 06:52:47;;;;;;;11.20;7.28;;;2.20;99.90;;;;;;5015734;28;20055;-77
2021/03/21 06:55:52;;;;;;;8.27;6.30;;;2.20;99.90;;;;;;5073064;28;20037;-77
2021/03/21 06:58:59;;;;;;;9.65;7.10;;;2.20;99.90;;;;;;5098375;28;20064;-77
2021/03/21 07:01:41;;;;;;;12.30;7.45;;;2.30;99.90;;;;;;5070931;28;20040;-77
2021/03/21 07:04:12;;;;;;;8.60;6.63;;;2.40;99.90;;;;;;5089308;28;20107;-77
2021/03/21 07:06:59;;;;;;;10.43;6.85;;;2.40;99.90;;;;;;5093003;28;20054;-78
2021/03/21 07:09:52;;;;;;;8.93;6.82;;;2.40;99.90;;;;;;5108353;28;20038;-77
2021/03/21 07:12:56;;;;;;;9.48;6.78;;;2.40;99.90;;;;;;5106355;28;20031;-77
2021/03/21 07:15:45;;;;;;;8.73;6.80;;;2.40;99.90;;;;;;5095156;28;20115;-77
2021/03/21 07:18:38;;;;;;;8.48;6.45;;;2.40;99.90;;;;;;5110278;28;20046;-77
2021/03/21 07:21:26;;;;;;;9.15;6.30;;;2.50;99.90;;;;;;5102913;28;20032;-77
2021/03/21 07:23:58;;;;;;;8.25;6.18;;;2.50;99.90;;;;;;5096195;28;20032;-77
2021/03/21 07:26:38;;;;;;;8.10;6.93;;;2.60;99.90;;;;;;5094009;28;20380;-77
2021/03/21 07:29:13;;;;;;;11.80;8.38;;;2.80;99.90;;;;;;5095703;28;20069;-77
2021/03/21 07:31:44;;;;;;;9.07;6.65;;;2.80;99.90;;;;;;5096195;28;20132;-77
2021/03/21 07:34:31;;;;;;;9.10;6.50;;;2.90;99.90;;;;;;5096591;28;20102;-77
2021/03/21 07:37:14;;;;;;;9.63;7.45;;;3.00;99.90;;;;;;5096044;28;20058;-77
2021/03/21 07:40:00;;;;;;;8.68;6.45;;;3.20;99.90;;;;;;5096353;28;20051;-77
2021/03/21 07:42:34;;;;;;;16.80;11.38;;;3.20;99.90;;;;;;5096209;28;20026;-77
2021/03/21 07:45:18;;;;;;;10.98;7.50;;;3.10;99.90;;;;;;5095034;28;20369;-77
2021/03/21 07:47:47;;;;;;;8.82;6.60;;;3.70;99.90;;;;;;5097079;28;20030;-77
2021/03/21 07:50:33;;;;;;;8.57;6.10;;;3.20;99.90;;;;;;5116521;28;20494;-77
2021/03/21 07:53:20;;;;;;;7.38;5.82;;;3.40;99.90;;;;;;5116148;28;20020;-77
2021/03/21 07:55:57;;;;;;;9.82;6.88;;;3.50;99.90;;;;;;5116462;28;20028;-77
2021/03/21 07:58:55;;;;;;;8.70;5.95;;;3.70;99.90;;;;;;5116272;28;20027;-77
2021/03/21 08:01:22;;;;;;;8.27;6.18;;;3.70;99.90;;;;;;5115587;28;20628;-78
2021/03/21 08:03:57;;;;;;;7.78;5.90;;;3.80;99.90;;;;;;5102595;28;20016;-78
2021/03/21 08:06:33;;;;;;;8.90;5.78;;;3.80;99.90;;;;;;5095208;28;20028;-78
2021/03/21 08:09:16;;;;;;;9.50;6.10;;;3.90;99.90;;;;;;5095632;28;20024;-78
2021/03/21 08:12:14;;;;;;;7.78;5.82;;;4.10;99.90;;;;;;5095780;28;20039;-78
2021/03/21 08:14:50;;;;;;;7.93;6.05;;;4.20;99.90;;;;;;5090401;28;20040;-78
2021/03/21 08:17:24;;;;;;;7.80;5.47;;;4.10;99.90;;;;;;5095806;28;20024;-78
2021/03/21 08:19:58;;;;;;;8.13;5.80;;;4.20;99.90;;;;;;5094904;28;20051;-78
2021/03/21 08:22:27;;;;;;;7.30;5.72;;;4.20;99.90;;;;;;5095481;28;20028;-78
2021/03/21 08:25:07;;;;;;;7.55;5.40;;;4.30;99.90;;;;;;5095073;28;20035;-78
2021/03/21 08:27:33;;;;;;;7.53;4.65;;;4.30;99.90;;;;;;5095408;28;20024;-78
2021/03/21 08:30:07;;;;;;;7.57;5.28;;;4.90;99.90;;;;;;5095394;28;20052;-78
2021/03/21 08:32:34;;;;;;;6.20;5.07;;;4.50;99.90;;;;;;5094131;28;20024;-77
2021/03/21 08:35:18;;;;;;;6.13;5.38;;;4.70;99.90;;;;;;5095148;28;20376;-78
2021/03/21 08:38:00;;;;;;;7.13;5.88;;;5.10;99.90;;;;;;5095251;28;20024;-78
2021/03/21 08:40:34;;;;;;;5.88;5.28;;;4.70;99.90;;;;;;5095326;28;20035;-78
2021/03/21 08:43:21;;;;;;;6.65;4.88;;;4.90;99.90;;;;;;5095248;28;20507;-78
2021/03/21 08:45:56;;;;;;;6.45;4.90;;;4.90;99.90;;;;;;5095061;28;20036;-78
2021/03/21 08:48:29;;;;;;;6.10;4.88;;;5.00;99.90;;;;;;5094664;28;20024;-78
2021/03/21 08:50:57;;;;;;;6.28;4.60;;;5.10;99.90;;;;;;5094671;28;20034;-78
2021/03/21 08:53:37;;;;;;;6.40;4.90;;;5.20;99.90;;;;;;5094729;28;20024;-78
2021/03/21 08:56:22;;;;;;;6.80;5.00;;;5.30;99.90;;;;;;5095127;28;20032;-78
2021/03/21 08:59:08;;;;;;;6.70;4.32;;;5.40;99.90;;;;;;5094733;28;20059;-78
2021/03/21 09:01:35;;;;;;;6.57;4.78;;;5.60;99.90;;;;;;5093533;28;20062;-78
2021/03/21 09:04:13;;;;;;;6.82;4.78;;;6.00;99.90;;;;;;5113409;28;20073;-78
2021/03/21 09:06:44;;;;;;;5.45;4.38;;;5.80;99.90;;;;;;5115123;28;20028;-78
2021/03/21 09:09:37;;;;;;;7.97;4.85;;;6.00;99.90;;;;;;5114798;28;20088;-78
2021/03/21 09:12:22;;;;;;;6.50;4.53;;;6.10;99.90;;;;;;5115024;28;20035;-78
2021/03/21 09:14:48;;;;;;;6.38;4.40;;;6.70;99.90;;;;;;5114986;28;20030;-78
2021/03/21 09:17:23;;;;;;;5.15;4.35;;;7.40;99.90;;;;;;5114533;28;20098;-78
2021/03/21 09:19:55;;;;;;;6.82;5.13;;;7.80;99.90;;;;;;5111024;28;20583;-78
2021/03/21 09:22:35;;;;;;;5.97;4.20;;;10.20;99.90;;;;;;5094326;28;20060;-78
2021/03/21 09:25:19;;;;;;;5.72;4.75;;;15.70;99.90;;;;;;5094418;28;20530;-78
2021/03/21 09:27:45;;;;;;;6.43;4.18;;;19.70;99.90;;;;;;5092888;28;20037;-79
2021/03/21 09:30:34;;;;;;;7.75;4.15;;;21.00;99.90;;;;;;5094251;28;20016;-78
2021/03/21 09:33:05;;;;;;;6.18;4.10;;;21.30;99.90;;;;;;5093697;28;20028;-79
2021/03/21 09:35:36;;;;;;;5.60;4.13;;;20.60;99.90;;;;;;5094125;28;20074;-79
2021/03/21 09:38:24;;;;;;;6.32;3.97;;;20.90;99.90;;;;;;5092890;28;20059;-79
2021/03/21 09:40:54;;;;;;;7.90;4.25;;;20.50;99.90;;;;;;5093757;28;20060;-79
2021/03/21 09:43:25;;;;;;;7.35;4.35;;;22.00;99.90;;;;;;5093799;28;20032;-79
2021/03/21 09:45:56;;;;;;;5.60;4.65;;;23.50;99.90;;;;;;5093839;28;20032;-79
2021/03/21 09:48:44;;;;;;;5.00;4.50;;;24.00;99.90;;;;;;5113162;28;20111;-79
2021/03/21 09:51:27;;;;;;;5.18;4.68;;;24.10;99.90;;;;;;5114140;28;20547;-79
2021/03/21 09:54:05;;;;;;;4.50;4.10;;;25.70;99.90;;;;;;5113610;28;20110;-79
2021/03/21 09:56:49;;;;;;;5.03;4.47;;;24.20;99.90;;;;;;5113613;28;20394;-79
2021/03/21 09:59:40;;;;;;;5.88;4.80;;;26.20;99.90;;;;;;5113906;28;20024;-79
2021/03/21 10:02:23;;;;;;;5.05;4.55;;;26.50;99.90;;;;;;5112887;28;20114;-79
2021/03/21 10:05:02;;;;;;;5.03;4.53;;;26.50;99.90;;;;;;5112683;28;20024;-79
2021/03/21 10:07:43;;;;;;;5.50;5.00;;;27.10;99.90;;;;;;5113815;28;20019;-79
2021/03/21 10:10:21;;;;;;;7.60;5.15;;;23.50;99.90;;;;;;5113886;28;20045;-79
2021/03/21 10:12:48;;;;;;;5.55;4.43;;;23.30;99.90;;;;;;5113698;28;20051;-79
2021/03/21 10:15:18;;;;;;;5.28;4.75;;;24.20;99.90;;;;;;5114009;28;20486;-80
2021/03/21 10:17:46;;;;;;;5.18;4.68;;;23.60;99.90;;;;;;5095718;28;20027;-79
2021/03/21 10:20:14;;;;;;;5.97;5.38;;;25.40;99.90;;;;;;5091814;28;20043;-80
2021/03/21 10:22:42;;;;;;;6.25;4.95;;;26.50;99.90;;;;;;5093546;28;20054;-79
2021/03/21 10:25:12;;;;;;;5.45;4.95;;;24.80;99.90;;;;;;5092294;28;20028;-79
2021/03/21 10:27:45;;;;;;;7.00;5.07;;;24.50;99.90;;;;;;5093259;28;20544;-80
2021/03/21 10:30:30;;;;;;;7.13;5.20;;;25.20;99.90;;;;;;5096033;28;20027;-79
2021/03/21 10:32:59;;;;;;;6.00;5.10;;;27.40;99.90;;;;;;5113591;28;20024;-79
2021/03/21 10:35:25;;;;;;;5.65;4.97;;;27.70;99.90;;;;;;5113624;28;20039;-80
2021/03/21 10:38:07;;;;;;;7.22;5.70;;;26.60;99.90;;;;;;5113491;28;20024;-79
2021/03/21 10:40:36;;;;;;;5.95;5.32;;;27.10;99.90;;;;;;5113298;28;20065;-80
2021/03/21 10:43:09;;;;;;;5.70;5.20;;;27.10;99.90;;;;;;5113096;28;20027;-80
2021/03/21 10:45:35;;;;;;;6.95;5.85;;;26.80;99.90;;;;;;5103770;28;20499;-80
2021/03/21 10:48:15;;;;;;;7.28;5.75;;;28.90;99.90;;;;;;5103910;28;20027;-83
2021/03/21 10:50:55;;;;;;;6.22;5.63;;;30.20;99.90;;;;;;5117614;28;20072;-80
2021/03/21 10:53:29;;;;;;;6.15;5.28;;;29.70;99.90;;;;;;5117490;28;20028;-80
2021/03/21 10:56:17;;;;;;;6.03;5.43;;;29.10;99.90;;;;;;5117424;28;20043;-80
2021/03/21 10:58:45;;;;;;;5.68;5.18;;;28.10;99.90;;;;;;5117564;28;20110;-80
2021/03/21 11:01:17;;;;;;;6.55;5.85;;;27.70;99.90;;;;;;5109048;28;20028;-81
2021/03/21 11:03:57;;;;;;;6.55;5.63;;;29.50;99.90;;;;;;5091279;28;20087;-80
2021/03/21 11:06:25;;;;;;;6.28;5.68;;;29.30;99.90;;;;;;5076445;28;20024;-81
2021/03/21 11:08:52;;;;;;;5.75;5.10;;;29.40;99.90;;;;;;5091518;28;20102;-80
2021/03/21 11:11:33;;;;;;;6.40;5.40;;;29.10;99.90;;;;;;5117166;28;20424;-80
2021/03/21 11:14:11;;;;;;;5.80;5.20;;;25.80;99.90;;;;;;5098946;28;20051;-80
2021/03/21 11:16:37;;;;;;;5.07;4.55;;;27.90;99.90;;;;;;5096959;28;20524;-80
2021/03/21 11:19:05;;;;;;;5.63;5.22;;;28.90;99.90;;;;;;5096458;28;20124;-80
2021/03/21 11:21:37;;;;;;;7.25;4.43;;;30.10;99.90;;;;;;5096729;28;20086;-81
2021/03/21 11:24:15;;;;;;;5.30;4.65;;;28.00;99.90;;;;;;5111338;28;20024;-81
2021/03/21 11:26:41;;;;;;;5.25;4.75;;;30.80;99.90;;;;;;5101998;28;20027;-81
2021/03/21 11:29:07;;;;;;;5.32;4.82;;;32.20;99.90;;;;;;5112007;28;20678;-79
2021/03/21 11:31:48;;;;;;;4.82;4.38;;;30.70;99.90;;;;;;5096329;28;20054;-78
2021/03/21 11:34:24;;;;;;;5.63;5.00;;;28.80;99.90;;;;;;5096443;28;20078;-78
2021/03/21 11:37:29;;;;;;;5.65;5.15;;;27.80;99.90;;;;;;5096291;28;20081;-78
2021/03/21 11:39:57;;;;;;;5.55;4.78;;;26.50;99.90;;;;;;5073731;28;20115;-78
2021/03/21 11:42:35;;;;;;;4.88;4.38;;;26.70;99.90;;;;;;5073614;28;20037;-78
2021/03/21 11:45:26;;;;;;;4.60;4.20;;;26.20;99.90;;;;;;5081547;28;20027;-78
2021/03/21 11:47:54;;;;;;;5.82;4.45;;;26.00;99.90;;;;;;5094192;28;20050;-78
2021/03/21 11:50:32;;;;;;;4.43;4.03;;;26.90;99.90;;;;;;5074443;28;20028;-78
2021/03/21 11:53:00;;;;;;;4.78;4.30;;;27.10;99.90;;;;;;5072874;28;20031;-78
2021/03/21 11:55:32;;;;;;;6.70;5.03;;;28.10;99.90;;;;;;5072959;28;20048;-78
2021/03/21 11:58:30;;;;;;;5.40;4.90;;;29.70;99.90;;;;;;5073073;28;20028;-78
2021/03/21 12:01:02;;;;;;;4.80;4.40;;;29.40;99.90;;;;;;5068618;28;20037;-79
2021/03/21 12:03:41;;;;;;;5.80;4.80;;;29.70;99.90;;;;;;5056321;28;20029;-80
2021/03/21 12:06:18;;;;;;;4.53;4.13;;;28.60;99.90;;;;;;5073473;28;20024;-78
2021/03/21 12:08:44;;;;;;;6.07;3.95;;;28.00;99.90;;;;;;5072962;28;20028;-78
2021/03/21 12:11:24;;;;;;;4.05;3.75;;;27.80;99.90;;;;;;5073347;28;20112;-78
2021/03/21 12:13:51;;;;;;;4.60;3.55;;;28.00;99.90;;;;;;5074221;28;20048;-78
2021/03/21 12:16:36;;;;;;;4.03;3.63;;;29.00;99.90;;;;;;5079553;28;20112;-79
2021/03/21 12:19:04;;;;;;;4.05;3.65;;;27.30;99.90;;;;;;5095412;28;20484;-79
2021/03/21 12:21:33;;;;;;;5.10;3.50;;;26.80;99.90;;;;;;5094820;28;20028;-79
2021/03/21 12:24:07;;;;;;;3.83;3.40;;;25.70;99.90;;;;;;5095360;28;20484;-79
2021/03/21 12:26:32;;;;;;;3.72;3.30;;;25.30;99.90;;;;;;5094868;28;20020;-79
2021/03/21 12:29:00;;;;;;;4.40;3.10;;;26.30;99.90;;;;;;5095876;28;20024;-79
2021/03/21 12:31:41;;;;;;;3.63;3.33;;;27.80;99.90;;;;;;5095120;28;20051;-79
2021/03/21 12:34:43;;;;;;;3.17;2.88;;;25.80;99.90;;;;;;5095337;28;20101;-79
2021/03/21 12:37:20;;;;;;;3.25;2.92;;;25.40;99.90;;;;;;5094898;28;20059;-78
2021/03/21 12:39:52;;;;;;;3.97;2.80;;;24.40;99.90;;;;;;5095175;28;20051;-78
2021/03/21 12:42:27;;;;;;;2.92;2.53;;;24.50;99.90;;;;;;5094553;28;20024;-78
2021/03/21 12:45:17;;;;;;;3.40;2.20;;;24.90;99.90;;;;;;5095124;28;20025;-78
2021/03/21 12:48:05;;;;;;;2.85;2.47;;;25.50;99.90;;;;;;5095419;28;20027;-79
2021/03/21 12:50:48;;;;;;;2.50;2.30;;;23.60;99.90;;;;;;5094692;28;20063;-78
2021/03/21 12:53:29;;;;;;;2.50;2.10;;;22.20;99.90;;;;;;5094995;28;20020;-78
2021/03/21 12:55:58;;;;;;;2.83;2.58;;;22.00;99.90;;;;;;5094700;28;20389;-78
2021/03/21 12:58:23;;;;;;;3.33;2.38;;;23.70;99.90;;;;;;5094859;28;20028;-78
2021/03/21 13:00:50;;;;;;;3.10;2.63;;;24.30;99.90;;;;;;5095152;28;20027;-80
2021/03/21 13:03:34;;;;;;;2.97;2.75;;;24.90;99.90;;;;;;5094794;28;20024;-80
2021/03/21 13:06:03;;;;;;;2.60;2.40;;;25.30;99.90;;;;;;5094803;28;20024;-80
2021/03/21 13:08:29;;;;;;;3.25;2.67;;;26.50;99.90;;;;;;5094007;28;20049;-80
2021/03/21 13:10:56;;;;;;;3.22;2.92;;;24.20;99.90;;;;;;5094260;28;20036;-80
2021/03/21 13:13:22;;;;;;;2.47;2.28;;;22.40;99.90;;;;;;5094420;28;20107;-81
2021/03/21 13:15:48;;;;;;;2.60;2.40;;;24.70;99.90;;;;;;5094790;28;20099;-82
2021/03/21 13:18:18;;;;;;;3.03;2.72;;;24.30;99.90;;;;;;5094410;28;20099;-81
2021/03/21 13:20:46;;;;;;;2.75;2.45;;;24.40;99.90;;;;;;5094222;28;20392;-81
2021/03/21 13:23:12;;;;;;;4.95;2.95;;;23.50;99.90;;;;;;5107576;28;20151;-81
2021/03/21 13:25:38;;;;;;;3.00;2.70;;;23.10;99.90;;;;;;5114297;28;20489;-81
2021/03/21 13:28:06;;;;;;;3.28;2.97;;;22.80;99.90;;;;;;5114889;28;20054;-81
2021/03/21 13:30:35;;;;;;;5.28;3.10;;;22.40;99.90;;;;;;5099460;28;20505;-81
2021/03/21 13:33:01;;;;;;;3.90;3.25;;;21.60;99.90;;;;;;5094170;28;20031;-81
2021/03/21 13:35:28;;;;;;;6.00;3.25;;;22.70;99.90;;;;;;5094292;28;20032;-80
2021/03/21 13:37:54;;;;;;;3.83;3.03;;;21.90;99.90;;;;;;5094165;28;20020;-80
2021/03/21 13:40:24;;;;;;;6.53;3.20;;;21.50;99.90;;;;;;5093970;28;20486;-80
2021/03/21 13:42:49;;;;;;;3.55;2.90;;;22.10;99.90;;;;;;5093784;28;20035;-80